createdAt,value
2022-11-22T00:02:03.956Z,2.91
2022-11-22T00:04:34.954Z,2.90
2022-11-22T00:07:05.977Z,2.90
2022-11-22T00:09:36.961Z,2.88
2022-11-22T00:12:08.071Z,2.88
2022-11-22T00:14:39.036Z,2.86
2022-11-22T00:17:09.988Z,2.88
2022-11-22T00:19:41.748Z,2.91
2022-11-22T00:22:13.003Z,2.93
2022-11-22T00:24:46.367Z,2.94
2022-11-22T00:27:17.392Z,2.95
2022-11-22T00:29:48.387Z,2.91
2022-11-22T00:32:19.752Z,2.87
2022-11-22T00:34:51.178Z,2.86
2022-11-22T00:37:22.151Z,2.87
2022-11-22T00:39:53.112Z,2.86
2022-11-22T00:42:24.224Z,2.84
2022-11-22T00:44:55.178Z,2.82
2022-11-22T00:47:26.182Z,2.82
2022-11-22T00:49:57.154Z,2.82
2022-11-22T00:52:28.105Z,2.85
2022-11-22T00:54:59.067Z,2.87
2022-11-22T00:57:30.059Z,2.88
2022-11-22T01:00:01.053Z,2.88
2022-11-22T01:02:32.033Z,2.87
2022-11-22T01:05:02.989Z,2.88
2022-11-22T01:07:34.023Z,2.89
2022-11-22T01:10:05.545Z,2.89
2022-11-22T01:12:36.625Z,2.88
2022-11-22T01:15:09.028Z,2.88
2022-11-22T01:17:40.125Z,2.85
2022-11-22T01:20:13.136Z,2.82
2022-11-22T01:22:44.097Z,2.79
2022-11-22T01:25:15.318Z,2.76
2022-11-22T01:27:46.364Z,2.76
2022-11-22T01:30:18.525Z,2.78
2022-11-22T01:32:49.473Z,2.80
2022-11-22T01:35:20.719Z,2.80
2022-11-22T01:37:51.670Z,2.82
2022-11-22T01:40:22.727Z,2.84
2022-11-22T01:42:56.629Z,2.85
2022-11-22T01:45:51.993Z,2.84
2022-11-22T01:48:31.858Z,2.76
2022-11-22T01:51:08.213Z,2.73
2022-11-22T01:53:41.843Z,2.72
2022-11-22T01:56:17.053Z,2.72
2022-11-22T01:58:52.282Z,2.72
2022-11-22T02:01:23.596Z,2.76
2022-11-22T02:03:57.560Z,2.81
2022-11-22T02:06:35.306Z,2.84
2022-11-22T02:09:11.711Z,2.84
2022-11-22T02:11:47.305Z,2.82
2022-11-22T02:14:20.537Z,2.80
2022-11-22T02:16:51.696Z,2.77
2022-11-22T02:19:30.719Z,2.74
2022-11-22T02:22:10.366Z,2.71
2022-11-22T02:24:47.856Z,2.71
2022-11-22T02:27:19.246Z,2.70
2022-11-22T02:29:52.598Z,2.68
2022-11-22T02:32:23.881Z,2.68
2022-11-22T02:34:54.939Z,2.71
2022-11-22T02:37:29.847Z,2.75
2022-11-22T02:40:06.236Z,2.77
2022-11-22T02:42:38.584Z,2.77
2022-11-22T02:45:10.961Z,2.79
2022-11-22T02:47:41.896Z,2.80
2022-11-22T02:50:13.090Z,2.80
2022-11-22T02:52:44.013Z,2.79
2022-11-22T02:55:15.150Z,2.80
2022-11-22T02:57:46.118Z,2.82
2022-11-22T03:00:18.794Z,2.86
2022-11-22T03:02:53.385Z,2.90
2022-11-22T03:05:27.299Z,2.97
2022-11-22T03:07:58.372Z,3.03
2022-11-22T03:10:29.468Z,3.07
2022-11-22T03:13:00.824Z,3.10
2022-11-22T03:15:32.007Z,3.12
2022-11-22T03:18:04.954Z,3.10
2022-11-22T03:20:36.831Z,3.07
2022-11-22T03:23:07.800Z,3.07
2022-11-22T03:25:41.093Z,3.07
2022-11-22T03:28:12.223Z,3.05
2022-11-22T03:30:44.052Z,3.04
2022-11-22T03:33:15.122Z,3.07
2022-11-22T03:35:46.278Z,3.09
2022-11-22T03:38:17.251Z,3.09
2022-11-22T03:40:50.006Z,3.09
2022-11-22T03:43:21.220Z,3.08
2022-11-22T03:45:52.137Z,3.07
2022-11-22T03:48:23.102Z,3.11
2022-11-22T03:50:54.597Z,3.12
2022-11-22T03:53:25.578Z,3.14
2022-11-22T03:55:56.576Z,3.12
2022-11-22T03:58:27.607Z,3.12
2022-11-22T04:00:58.855Z,3.08
2022-11-22T04:03:29.969Z,3.07
2022-11-22T04:06:01.122Z,3.07
2022-11-22T04:08:32.296Z,3.09
2022-11-22T04:11:03.404Z,3.10
2022-11-22T04:13:48.297Z,3.08
2022-11-22T04:16:19.441Z,3.07
2022-11-22T04:18:50.378Z,3.05
2022-11-22T04:21:36.357Z,3.02
2022-11-22T04:24:27.136Z,3.00
2022-11-22T04:26:58.799Z,2.99
2022-11-22T04:29:30.670Z,2.97
2022-11-22T04:32:19.339Z,2.94
2022-11-22T04:34:50.376Z,2.92
2022-11-22T04:37:21.379Z,2.91
2022-11-22T04:39:52.457Z,2.91
2022-11-22T04:42:40.893Z,2.93
2022-11-22T04:45:13.358Z,2.95
2022-11-22T04:48:02.959Z,2.91
2022-11-22T04:50:52.361Z,2.89
2022-11-22T04:53:23.277Z,2.91
2022-11-22T04:55:54.734Z,2.93
2022-11-22T04:58:26.243Z,2.94
2022-11-22T05:00:57.317Z,2.95
2022-11-22T05:03:28.703Z,2.96
2022-11-22T05:06:03.943Z,2.95
2022-11-22T05:08:35.493Z,2.97
2022-11-22T05:11:06.588Z,2.96
2022-11-22T05:13:39.626Z,2.94
2022-11-22T05:16:12.920Z,2.93
2022-11-22T05:18:59.076Z,2.90
2022-11-22T05:21:30.955Z,2.89
2022-11-22T05:24:02.178Z,2.90
2022-11-22T05:26:35.634Z,2.86
2022-11-22T05:29:09.206Z,2.82
2022-11-22T05:31:45.705Z,2.81
2022-11-22T05:34:20.918Z,2.82
2022-11-22T05:36:51.941Z,2.84
2022-11-22T05:39:23.134Z,2.88
2022-11-22T05:41:57.193Z,2.91
2022-11-22T05:44:28.291Z,2.93
2022-11-22T05:47:01.845Z,2.92
2022-11-22T05:49:33.465Z,2.93
2022-11-22T05:52:04.773Z,2.92
2022-11-22T05:54:35.735Z,2.89
2022-11-22T05:57:06.983Z,2.81
2022-11-22T05:59:43.763Z,2.75
2022-11-22T06:02:15.204Z,2.68
2022-11-22T06:04:46.238Z,2.63
2022-11-22T06:07:17.355Z,2.63
2022-11-22T06:09:48.293Z,2.63
2022-11-22T06:12:19.301Z,2.69
2022-11-22T06:14:50.320Z,2.75
2022-11-22T06:17:21.367Z,2.78
2022-11-22T06:19:52.467Z,2.81
2022-11-22T06:22:23.418Z,2.83
2022-11-22T06:24:55.228Z,2.82
2022-11-22T06:27:26.280Z,2.77
2022-11-22T06:29:57.340Z,2.74
2022-11-22T06:32:28.763Z,2.72
2022-11-22T06:35:01.119Z,2.72
2022-11-22T06:37:32.641Z,2.77
2022-11-22T06:40:03.809Z,2.84
2022-11-22T06:42:35.947Z,2.94
2022-11-22T06:45:13.320Z,3.02
2022-11-22T06:47:45.617Z,3.10
2022-11-22T06:50:21.597Z,3.11
2022-11-22T06:52:57.908Z,3.11
2022-11-22T06:55:49.609Z,3.08
2022-11-22T06:58:20.901Z,3.05
2022-11-22T07:00:52.188Z,3.03
2022-11-22T07:03:23.243Z,3.06
2022-11-22T07:05:54.811Z,3.11
2022-11-22T07:08:28.532Z,3.16
2022-11-22T07:11:04.689Z,3.22
2022-11-22T07:13:36.713Z,3.25
2022-11-22T07:16:10.309Z,3.25
2022-11-22T07:18:42.160Z,3.28
2022-11-22T07:21:15.555Z,3.31
2022-11-22T07:23:49.445Z,3.36
2022-11-22T07:26:44.629Z,3.41
2022-11-22T07:29:15.713Z,3.43
2022-11-22T07:31:48.900Z,3.46
2022-11-22T07:34:22.442Z,3.50
2022-11-22T07:36:58.740Z,3.49
2022-11-22T07:39:33.285Z,3.49
2022-11-22T07:42:04.565Z,3.50
2022-11-22T07:44:35.404Z,3.52
2022-11-22T07:47:06.665Z,3.53
2022-11-22T07:49:38.823Z,3.53
2022-11-22T07:52:11.233Z,3.50
2022-11-22T07:54:42.603Z,3.48
2022-11-22T07:57:14.094Z,3.53
2022-11-22T07:59:45.274Z,3.58
2022-11-22T08:02:18.820Z,3.63
2022-11-22T08:04:55.144Z,3.68
2022-11-22T08:07:27.850Z,3.70
2022-11-22T08:09:59.057Z,3.71
2022-11-22T08:12:30.095Z,3.70
2022-11-22T08:15:02.226Z,3.65
2022-11-22T08:17:33.048Z,3.62
2022-11-22T08:20:05.569Z,3.60
2022-11-22T08:22:39.235Z,3.63
2022-11-22T08:25:14.121Z,3.63
2022-11-22T08:27:46.391Z,3.66
2022-11-22T08:30:22.259Z,3.71
2022-11-22T08:32:59.138Z,3.77
2022-11-22T08:35:30.177Z,3.80
2022-11-22T08:38:01.754Z,3.83
2022-11-22T08:41:14.111Z,3.85
2022-11-22T08:43:45.952Z,3.83
2022-11-22T08:46:18.546Z,3.88
2022-11-22T08:48:53.324Z,3.90
2022-11-22T08:51:24.579Z,3.90
2022-11-22T08:53:58.383Z,3.89
2022-11-22T08:56:30.251Z,3.89
2022-11-22T08:59:01.617Z,3.90
2022-11-22T09:01:33.456Z,3.91
2022-11-22T09:04:04.807Z,3.92
2022-11-22T09:09:37.368Z,3.94
2022-11-22T09:12:10.303Z,3.96
2022-11-22T09:14:42.026Z,4.00
2022-11-22T09:17:17.929Z,4.04
2022-11-22T09:19:49.445Z,4.06
2022-11-22T09:22:24.027Z,4.08
2022-11-22T09:24:59.010Z,4.09
2022-11-22T09:27:33.181Z,4.09
2022-11-22T09:30:05.715Z,4.08
2022-11-22T09:32:36.819Z,4.08
2022-11-22T09:35:09.855Z,4.07
2022-11-22T09:37:41.424Z,4.08
2022-11-22T09:40:20.118Z,4.09
2022-11-22T09:43:38.081Z,4.11
2022-11-22T09:46:35.678Z,4.13
2022-11-22T09:49:29.848Z,4.14
2022-11-22T09:52:09.114Z,4.18
2022-11-22T09:54:47.911Z,4.22
2022-11-22T09:57:26.979Z,4.24
2022-11-22T10:00:06.523Z,4.25
2022-11-22T10:03:00.299Z,4.23
2022-11-22T10:05:41.362Z,4.22
2022-11-22T10:08:22.444Z,4.22
2022-11-22T10:10:58.000Z,4.26
2022-11-22T10:13:37.261Z,4.26
2022-11-22T10:16:15.826Z,4.25
2022-11-22T10:18:55.064Z,4.24
2022-11-22T10:21:27.285Z,4.21
2022-11-22T10:23:58.480Z,4.15
2022-11-22T10:26:32.932Z,4.09
2022-11-22T10:29:16.201Z,4.10
2022-11-22T10:31:58.023Z,4.14
2022-11-22T10:34:49.785Z,4.18
2022-11-22T10:37:33.610Z,4.23
2022-11-22T10:40:14.224Z,4.26
2022-11-22T10:43:00.121Z,4.29
2022-11-22T10:45:36.454Z,4.31
2022-11-22T10:48:22.202Z,4.35
2022-11-22T10:50:55.606Z,4.37
2022-11-22T10:53:38.401Z,4.39
2022-11-22T10:56:16.729Z,4.43
2022-11-22T10:58:58.231Z,4.43
2022-11-22T11:01:37.195Z,4.47
2022-11-22T11:04:11.130Z,4.50
2022-11-22T11:12:41.918Z,4.50
2022-11-22T11:15:22.287Z,4.51
2022-11-22T11:17:59.859Z,4.52
2022-11-22T11:20:36.538Z,4.53
2022-11-22T11:23:14.693Z,4.55
2022-11-22T11:25:47.602Z,4.60
2022-11-22T11:28:22.784Z,4.68
2022-11-22T11:30:56.487Z,4.74
2022-11-22T11:33:33.542Z,4.77
2022-11-22T11:36:11.956Z,4.77
2022-11-22T11:38:54.344Z,4.79
2022-11-22T11:41:29.676Z,4.83
2022-11-22T11:44:04.364Z,4.88
2022-11-22T11:46:49.267Z,4.90
2022-11-22T11:49:22.608Z,4.90
2022-11-22T11:51:58.627Z,4.89
2022-11-22T11:54:44.237Z,4.85
2022-11-22T11:57:20.205Z,4.78
2022-11-22T11:59:53.407Z,4.71
2022-11-22T12:02:26.354Z,4.66
2022-11-22T12:05:01.042Z,4.58
2022-11-22T12:07:43.772Z,4.51
2022-11-22T12:10:41.737Z,4.43
2022-11-22T12:13:22.179Z,4.37
2022-11-22T12:15:59.268Z,4.31
2022-11-22T12:18:42.121Z,4.24
2022-11-22T12:21:25.178Z,4.19
2022-11-22T12:24:26.952Z,4.10
2022-11-22T12:26:55.262Z,4.06
2022-11-22T12:29:26.684Z,4.07
2022-11-22T12:32:03.275Z,4.10
2022-11-22T12:34:39.014Z,4.12
2022-11-22T12:37:16.327Z,4.13
2022-11-22T12:39:50.507Z,4.09
2022-11-22T12:42:25.361Z,4.06
2022-11-22T12:45:02.554Z,4.00
2022-11-22T12:47:39.028Z,3.97
2022-11-22T12:50:21.925Z,3.95
2022-11-22T12:52:58.110Z,3.91
2022-11-22T12:55:32.735Z,3.90
2022-11-22T12:58:16.786Z,3.92
2022-11-22T13:01:01.980Z,3.91
2022-11-22T13:03:40.234Z,3.85
2022-11-22T13:06:12.130Z,3.81
2022-11-22T13:08:54.615Z,3.80
2022-11-22T13:11:32.371Z,3.80
2022-11-22T13:14:17.743Z,3.81
2022-11-22T13:16:52.574Z,3.82
2022-11-22T13:19:27.106Z,3.81
2022-11-22T13:22:14.986Z,3.79
2022-11-22T13:25:09.920Z,3.79
2022-11-22T13:27:45.692Z,3.77
2022-11-22T13:30:23.476Z,3.73
2022-11-22T13:32:56.960Z,3.66
2022-11-22T13:35:32.990Z,3.61
2022-11-22T13:38:06.441Z,3.56
2022-11-22T13:40:43.028Z,3.52
2022-11-22T13:43:53.266Z,3.50
2022-11-22T13:46:53.397Z,3.49
2022-11-22T13:49:39.170Z,3.47
2022-11-22T13:52:45.057Z,3.44
2022-11-22T13:55:42.445Z,3.43
2022-11-22T13:58:54.713Z,3.43
2022-11-22T14:01:58.338Z,3.39
2022-11-22T14:04:39.174Z,3.37
2022-11-22T14:07:30.062Z,3.34
2022-11-22T14:10:03.442Z,3.32
2022-11-22T14:12:49.393Z,3.30
2022-11-22T14:15:50.213Z,3.28
2022-11-22T14:18:41.034Z,3.21
2022-11-22T14:21:16.383Z,3.17
2022-11-22T14:23:51.726Z,3.11
2022-11-22T14:26:34.888Z,3.04
2022-11-22T14:29:54.313Z,3.00
2022-11-22T14:32:27.492Z,2.98
2022-11-22T14:35:30.456Z,2.95
2022-11-22T14:38:21.560Z,2.90
2022-11-22T14:40:53.073Z,2.88
2022-11-22T14:43:35.069Z,2.84
2022-11-22T14:46:37.317Z,2.79
2022-11-22T14:49:12.065Z,2.78
2022-11-22T14:51:43.451Z,2.77
2022-11-22T14:54:23.352Z,2.76
2022-11-22T14:57:03.966Z,2.74
2022-11-22T15:00:04.582Z,2.73
2022-11-22T15:03:08.918Z,2.72
2022-11-22T15:09:18.391Z,2.73
2022-11-22T15:09:33.448Z,2.71
2022-11-22T15:12:16.656Z,2.67
2022-11-22T15:57:32.077Z,2.29
2022-11-22T16:00:10.125Z,2.27
2022-11-22T16:02:51.217Z,2.23
2022-11-22T16:06:06.188Z,2.23
2022-11-22T16:08:27.825Z,2.24
2022-11-22T16:11:05.222Z,2.25
2022-11-22T16:13:38.542Z,2.25
2022-11-22T16:16:27.897Z,2.24
2022-11-22T16:21:59.375Z,2.27
2022-11-22T16:24:31.914Z,2.26
2022-11-22T16:27:06.143Z,2.27
2022-11-22T16:29:38.600Z,2.28
2022-11-22T16:32:14.783Z,2.28
2022-11-22T16:34:47.045Z,2.27
2022-11-22T16:37:36.427Z,2.22
2022-11-22T16:40:14.043Z,2.18
2022-11-22T16:42:45.289Z,2.12
2022-11-22T16:45:20.123Z,2.05
2022-11-22T16:48:03.848Z,1.96
2022-11-22T16:50:43.620Z,1.87
2022-11-22T16:53:17.081Z,1.83
2022-11-22T16:55:49.501Z,1.79
2022-11-22T16:58:25.098Z,1.78
2022-11-22T17:00:57.063Z,1.82
2022-11-22T17:03:31.871Z,1.83
2022-11-22T17:06:03.943Z,1.82
2022-11-22T17:08:34.932Z,1.80
2022-11-22T17:11:05.931Z,1.78
2022-11-22T17:13:37.242Z,1.73
2022-11-22T17:16:10.715Z,1.73
2022-11-22T17:18:42.290Z,1.70
2022-11-22T17:21:19.380Z,1.71
2022-11-22T17:23:51.425Z,1.72
2022-11-22T17:26:22.786Z,1.74
2022-11-22T17:28:54.376Z,1.74
2022-11-22T17:31:28.769Z,1.73
2022-11-22T17:34:00.797Z,1.70
2022-11-22T17:36:33.302Z,1.68
2022-11-22T17:39:07.013Z,1.69
2022-11-22T17:41:38.699Z,1.69
2022-11-22T17:44:15.956Z,1.70
2022-11-22T17:46:47.717Z,1.69
2022-11-22T17:49:18.748Z,1.69
2022-11-22T17:51:51.039Z,1.68
2022-11-22T17:54:22.097Z,1.67
2022-11-22T17:56:53.319Z,1.67
2022-11-22T17:59:25.469Z,1.65
2022-11-22T18:01:56.445Z,1.65
2022-11-22T18:04:27.799Z,1.64
2022-11-22T18:06:59.031Z,1.66
2022-11-22T18:09:30.378Z,1.66
2022-11-22T18:12:01.929Z,1.63
2022-11-22T18:14:34.819Z,1.62
2022-11-22T18:17:06.269Z,1.59
2022-11-22T18:19:37.136Z,1.55
2022-11-22T18:22:08.099Z,1.55
2022-11-22T18:24:40.479Z,1.59
2022-11-22T18:27:20.327Z,1.62
2022-11-22T18:29:55.674Z,1.66
2022-11-22T18:32:27.133Z,1.67
2022-11-22T18:34:58.303Z,1.66
2022-11-22T18:37:29.659Z,1.64
2022-11-22T18:40:00.921Z,1.62
2022-11-22T18:42:32.411Z,1.61
2022-11-22T18:45:08.803Z,1.62
2022-11-22T18:47:39.891Z,1.62
2022-11-22T18:50:16.376Z,1.64
2022-11-22T18:52:47.544Z,1.68
2022-11-22T18:55:22.968Z,1.69
2022-11-22T18:57:54.581Z,1.68
2022-11-22T19:00:26.678Z,1.67
2022-11-22T19:02:58.866Z,1.64
2022-11-22T19:05:30.059Z,1.61
2022-11-22T19:08:01.078Z,1.62
2022-11-22T19:10:32.008Z,1.63
2022-11-22T19:13:03.039Z,1.65
2022-11-22T19:15:33.933Z,1.69
2022-11-22T19:18:05.071Z,1.68
2022-11-22T19:20:54.500Z,1.68
2022-11-22T19:23:26.487Z,1.70
2022-11-22T19:25:57.706Z,1.71
2022-11-22T19:28:30.471Z,1.72
2022-11-22T19:31:07.751Z,1.72
2022-11-22T19:33:39.086Z,1.69
2022-11-22T19:36:14.437Z,1.68
2022-11-22T19:38:44.129Z,1.65
2022-11-22T19:41:17.887Z,1.61
2022-11-22T19:43:49.928Z,1.59
2022-11-22T19:46:21.478Z,1.58
2022-11-22T19:48:55.209Z,1.56
2022-11-22T19:51:27.674Z,1.57
2022-11-22T19:54:02.057Z,1.57
2022-11-22T19:56:35.538Z,1.58
2022-11-22T19:59:09.924Z,1.59
2022-11-22T20:01:40.968Z,1.59
2022-11-22T20:04:15.311Z,1.61
2022-11-22T20:06:50.119Z,1.62
2022-11-22T20:09:22.461Z,1.67
2022-11-22T20:11:53.613Z,1.71
2022-11-22T20:14:24.927Z,1.71
2022-11-22T20:16:55.852Z,1.73
2022-11-22T20:19:31.149Z,1.76
2022-11-22T20:22:04.982Z,1.76
2022-11-22T20:24:36.100Z,1.80
2022-11-22T20:27:09.320Z,1.84
2022-11-22T20:29:40.298Z,1.86
2022-11-22T20:32:12.378Z,1.88
2022-11-22T20:34:43.895Z,1.86
2022-11-22T20:37:15.221Z,1.84
2022-11-22T20:39:47.319Z,1.83
2022-11-22T20:42:34.837Z,1.79
2022-11-22T20:45:10.701Z,1.75
2022-11-22T20:47:47.774Z,1.72
2022-11-22T20:50:20.958Z,1.68
2022-11-22T20:52:52.177Z,1.64
2022-11-22T20:55:23.102Z,1.63
2022-11-22T20:57:54.223Z,1.64
2022-11-22T21:00:25.557Z,1.64
2022-11-22T21:02:56.676Z,1.63
2022-11-22T21:05:28.627Z,1.63
2022-11-22T21:08:05.037Z,1.64
2022-11-22T21:10:36.750Z,1.65
2022-11-22T21:13:07.947Z,1.65
2022-11-22T21:15:41.504Z,1.65
2022-11-22T21:18:28.625Z,1.67
2022-11-22T21:21:04.662Z,1.71
2022-11-22T21:23:36.628Z,1.72
2022-11-22T21:26:09.060Z,1.74
2022-11-22T21:28:45.149Z,1.75
2022-11-22T21:31:17.165Z,1.75
2022-11-22T21:33:52.730Z,1.76
2022-11-22T21:36:24.376Z,1.72
2022-11-22T21:38:55.330Z,1.68
2022-11-22T21:41:41.969Z,1.62
2022-11-22T21:44:14.105Z,1.61
2022-11-22T21:46:45.265Z,1.64
2022-11-22T21:49:16.258Z,1.66
2022-11-22T21:51:48.378Z,1.67
2022-11-22T21:54:19.408Z,1.67
2022-11-22T21:56:50.426Z,1.70
2022-11-22T21:59:21.679Z,1.73
2022-11-22T22:01:53.266Z,1.78
2022-11-22T22:04:24.546Z,1.79
2022-11-22T22:06:55.782Z,1.78
2022-11-22T22:09:26.789Z,1.80
2022-11-22T22:11:58.074Z,1.77
2022-11-22T22:14:29.830Z,1.76
2022-11-22T22:17:01.077Z,1.73
2022-11-22T22:19:33.087Z,1.72
2022-11-22T22:22:04.234Z,1.73
2022-11-22T22:24:35.144Z,1.79
2022-11-22T22:27:07.235Z,1.84
2022-11-22T22:29:38.353Z,1.87
2022-11-22T22:32:10.772Z,1.89
2022-11-22T22:34:41.883Z,1.91
2022-11-22T22:37:12.940Z,1.95
2022-11-22T22:39:43.970Z,1.99
2022-11-22T22:42:15.404Z,2.01
2022-11-22T22:44:46.459Z,2.00
2022-11-22T22:47:17.606Z,1.95
2022-11-22T22:49:48.421Z,1.93
2022-11-22T22:52:19.793Z,1.91
2022-11-22T22:54:50.725Z,1.90
2022-11-22T22:57:21.592Z,1.89
2022-11-22T22:59:53.225Z,1.89
2022-11-22T23:02:24.174Z,1.88
2022-11-22T23:04:55.030Z,1.86
2022-11-22T23:07:25.837Z,1.85
2022-11-22T23:09:56.733Z,1.85
2022-11-22T23:12:27.730Z,1.83
2022-11-22T23:14:58.716Z,1.82
2022-11-22T23:17:29.662Z,1.84
2022-11-22T23:20:00.900Z,1.87
2022-11-22T23:22:31.796Z,1.90
2022-11-22T23:25:02.646Z,1.93
2022-11-22T23:27:33.484Z,1.94
2022-11-22T23:30:05.144Z,1.93
2022-11-22T23:32:36.184Z,1.91
2022-11-22T23:35:08.427Z,1.90
2022-11-22T23:37:39.229Z,1.86
2022-11-22T23:40:12.641Z,1.86
2022-11-22T23:42:43.392Z,1.88
2022-11-22T23:45:14.555Z,1.88
2022-11-22T23:47:45.708Z,1.87
2022-11-22T23:50:17.763Z,1.88
2022-11-22T23:52:48.640Z,1.88
2022-11-22T23:55:19.659Z,1.89
2022-11-22T23:57:50.532Z,1.89
